sensor_id;sensor_type;location;lat;lon;timestamp;P1;durP1;ratioP1;P2;durP2;ratioP2
50350;SDS011;36250;48.740;22.174;2024-02-26T00:00:05;30.70;;;17.40;;
50350;SDS011;36250;48.740;22.174;2024-02-26T00:02:34;26.83;;;17.40;;
50350;SDS011;36250;48.740;22.174;2024-02-26T00:05:06;26.60;;;16.50;;
50350;SDS011;36250;48.740;22.174;2024-02-26T00:07:32;28.67;;;18.27;;
50350;SDS011;36250;48.740;22.174;2024-02-26T00:09:58;24.63;;;16.10;;
50350;SDS011;36250;48.740;22.174;2024-02-26T00:12:23;21.75;;;17.42;;
50350;SDS011;36250;48.740;22.174;2024-02-26T00:14:49;23.88;;;17.80;;
50350;SDS011;36250;48.740;22.174;2024-02-26T00:17:14;27.27;;;17.50;;
50350;SDS011;36250;48.740;22.174;2024-02-26T00:19:40;28.77;;;20.10;;
50350;SDS011;36250;48.740;22.174;2024-02-26T00:22:06;24.17;;;16.42;;
50350;SDS011;36250;48.740;22.174;2024-02-26T00:24:31;21.02;;;15.90;;
50350;SDS011;36250;48.740;22.174;2024-02-26T00:26:57;26.77;;;17.42;;
50350;SDS011;36250;48.740;22.174;2024-02-26T00:29:22;20.80;;;15.73;;
50350;SDS011;36250;48.740;22.174;2024-02-26T00:31:49;26.52;;;16.63;;
50350;SDS011;36250;48.740;22.174;2024-02-26T00:34:14;22.38;;;15.93;;
50350;SDS011;36250;48.740;22.174;2024-02-26T00:36:39;24.75;;;15.57;;
50350;SDS011;36250;48.740;22.174;2024-02-26T00:39:05;26.48;;;16.20;;
50350;SDS011;36250;48.740;22.174;2024-02-26T00:41:30;28.85;;;16.08;;
50350;SDS011;36250;48.740;22.174;2024-02-26T00:43:55;21.40;;;15.00;;
50350;SDS011;36250;48.740;22.174;2024-02-26T00:46:21;24.00;;;15.75;;
50350;SDS011;36250;48.740;22.174;2024-02-26T00:48:46;23.58;;;15.10;;
50350;SDS011;36250;48.740;22.174;2024-02-26T00:51:11;25.67;;;15.73;;
50350;SDS011;36250;48.740;22.174;2024-02-26T00:53:37;22.95;;;14.63;;
50350;SDS011;36250;48.740;22.174;2024-02-26T00:56:02;21.92;;;15.52;;
50350;SDS011;36250;48.740;22.174;2024-02-26T00:58:28;24.60;;;15.27;;
50350;SDS011;36250;48.740;22.174;2024-02-26T01:00:53;18.27;;;13.73;;
50350;SDS011;36250;48.740;22.174;2024-02-26T01:03:18;22.80;;;15.05;;
50350;SDS011;36250;48.740;22.174;2024-02-26T01:05:44;28.05;;;16.13;;
50350;SDS011;36250;48.740;22.174;2024-02-26T01:08:10;25.30;;;17.38;;
50350;SDS011;36250;48.740;22.174;2024-02-26T01:10:35;27.42;;;15.75;;
50350;SDS011;36250;48.740;22.174;2024-02-26T01:13:01;25.73;;;14.30;;
50350;SDS011;36250;48.740;22.174;2024-02-26T01:15:26;22.80;;;16.02;;
50350;SDS011;36250;48.740;22.174;2024-02-26T01:17:51;21.90;;;14.93;;
50350;SDS011;36250;48.740;22.174;2024-02-26T01:20:17;25.48;;;13.63;;
50350;SDS011;36250;48.740;22.174;2024-02-26T01:22:43;24.83;;;14.20;;
50350;SDS011;36250;48.740;22.174;2024-02-26T01:25:09;21.98;;;14.65;;
50350;SDS011;36250;48.740;22.174;2024-02-26T01:27:35;24.15;;;15.05;;
50350;SDS011;36250;48.740;22.174;2024-02-26T01:30:02;21.40;;;14.43;;
50350;SDS011;36250;48.740;22.174;2024-02-26T01:32:28;23.25;;;13.77;;
50350;SDS011;36250;48.740;22.174;2024-02-26T01:34:54;20.65;;;14.55;;
50350;SDS011;36250;48.740;22.174;2024-02-26T01:37:19;22.73;;;14.35;;
50350;SDS011;36250;48.740;22.174;2024-02-26T01:39:45;21.17;;;14.63;;
50350;SDS011;36250;48.740;22.174;2024-02-26T01:42:10;21.75;;;13.50;;
50350;SDS011;36250;48.740;22.174;2024-02-26T01:44:36;25.23;;;14.05;;
50350;SDS011;36250;48.740;22.174;2024-02-26T01:47:03;21.95;;;13.52;;
50350;SDS011;36250;48.740;22.174;2024-02-26T01:49:29;17.73;;;11.20;;
50350;SDS011;36250;48.740;22.174;2024-02-26T01:51:55;18.52;;;13.10;;
50350;SDS011;36250;48.740;22.174;2024-02-26T01:54:21;24.67;;;15.32;;
50350;SDS011;36250;48.740;22.174;2024-02-26T01:56:46;34.08;;;24.08;;
50350;SDS011;36250;48.740;22.174;2024-02-26T01:59:12;51.22;;;32.55;;
50350;SDS011;36250;48.740;22.174;2024-02-26T02:01:38;33.78;;;24.15;;
50350;SDS011;36250;48.740;22.174;2024-02-26T02:04:09;30.17;;;19.33;;
50350;SDS011;36250;48.740;22.174;2024-02-26T02:06:34;29.67;;;16.27;;
50350;SDS011;36250;48.740;22.174;2024-02-26T02:09:01;20.65;;;13.18;;
50350;SDS011;36250;48.740;22.174;2024-02-26T02:11:31;19.23;;;12.13;;
50350;SDS011;36250;48.740;22.174;2024-02-26T02:13:58;17.58;;;12.27;;
50350;SDS011;36250;48.740;22.174;2024-02-26T02:16:23;17.67;;;11.98;;
50350;SDS011;36250;48.740;22.174;2024-02-26T02:18:48;18.52;;;11.88;;
50350;SDS011;36250;48.740;22.174;2024-02-26T02:21:13;18.00;;;11.57;;
50350;SDS011;36250;48.740;22.174;2024-02-26T02:23:39;18.90;;;12.02;;
50350;SDS011;36250;48.740;22.174;2024-02-26T02:26:05;19.80;;;12.35;;
50350;SDS011;36250;48.740;22.174;2024-02-26T02:28:30;17.38;;;10.77;;
50350;SDS011;36250;48.740;22.174;2024-02-26T02:30:56;17.60;;;11.75;;
50350;SDS011;36250;48.740;22.174;2024-02-26T02:33:21;18.88;;;12.20;;
50350;SDS011;36250;48.740;22.174;2024-02-26T02:35:48;17.90;;;11.60;;
50350;SDS011;36250;48.740;22.174;2024-02-26T02:38:15;17.70;;;12.93;;
50350;SDS011;36250;48.740;22.174;2024-02-26T02:40:41;16.85;;;11.85;;
50350;SDS011;36250;48.740;22.174;2024-02-26T02:43:06;17.55;;;11.15;;
50350;SDS011;36250;48.740;22.174;2024-02-26T02:45:31;14.98;;;10.40;;
50350;SDS011;36250;48.740;22.174;2024-02-26T02:47:57;15.20;;;10.38;;
50350;SDS011;36250;48.740;22.174;2024-02-26T02:50:22;19.17;;;10.75;;
50350;SDS011;36250;48.740;22.174;2024-02-26T02:52:47;15.65;;;11.10;;
50350;SDS011;36250;48.740;22.174;2024-02-26T02:55:15;14.15;;;10.90;;
50350;SDS011;36250;48.740;22.174;2024-02-26T02:57:40;15.82;;;10.85;;
50350;SDS011;36250;48.740;22.174;2024-02-26T03:00:08;17.08;;;10.52;;
50350;SDS011;36250;48.740;22.174;2024-02-26T03:02:34;17.33;;;11.13;;
50350;SDS011;36250;48.740;22.174;2024-02-26T03:05:01;17.20;;;11.40;;
50350;SDS011;36250;48.740;22.174;2024-02-26T03:07:27;16.33;;;10.65;;
50350;SDS011;36250;48.740;22.174;2024-02-26T03:09:52;18.38;;;10.85;;
50350;SDS011;36250;48.740;22.174;2024-02-26T03:12:18;15.80;;;9.32;;
50350;SDS011;36250;48.740;22.174;2024-02-26T03:14:43;14.98;;;10.18;;
50350;SDS011;36250;48.740;22.174;2024-02-26T03:17:09;15.98;;;9.88;;
50350;SDS011;36250;48.740;22.174;2024-02-26T03:19:34;13.18;;;9.38;;
50350;SDS011;36250;48.740;22.174;2024-02-26T03:21:59;15.35;;;9.25;;
50350;SDS011;36250;48.740;22.174;2024-02-26T03:24:24;15.63;;;9.40;;
50350;SDS011;36250;48.740;22.174;2024-02-26T03:26:50;16.90;;;9.48;;
50350;SDS011;36250;48.740;22.174;2024-02-26T03:29:17;13.98;;;9.43;;
50350;SDS011;36250;48.740;22.174;2024-02-26T03:31:42;14.77;;;9.02;;
50350;SDS011;36250;48.740;22.174;2024-02-26T03:34:07;17.92;;;9.70;;
50350;SDS011;36250;48.740;22.174;2024-02-26T03:36:33;12.98;;;9.05;;
50350;SDS011;36250;48.740;22.174;2024-02-26T03:38:58;12.43;;;8.95;;
50350;SDS011;36250;48.740;22.174;2024-02-26T03:41:23;20.27;;;11.13;;
50350;SDS011;36250;48.740;22.174;2024-02-26T03:43:49;14.13;;;9.57;;
50350;SDS011;36250;48.740;22.174;2024-02-26T03:46:14;12.45;;;8.90;;
50350;SDS011;36250;48.740;22.174;2024-02-26T03:48:40;16.13;;;9.80;;
50350;SDS011;36250;48.740;22.174;2024-02-26T03:51:06;15.15;;;9.23;;
50350;SDS011;36250;48.740;22.174;2024-02-26T03:53:35;14.98;;;9.35;;
50350;SDS011;36250;48.740;22.174;2024-02-26T03:56:04;18.00;;;9.02;;
50350;SDS011;36250;48.740;22.174;2024-02-26T03:58:29;14.73;;;8.80;;
50350;SDS011;36250;48.740;22.174;2024-02-26T04:00:55;16.52;;;9.18;;
50350;SDS011;36250;48.740;22.174;2024-02-26T04:03:21;9.90;;;8.68;;
50350;SDS011;36250;48.740;22.174;2024-02-26T04:05:46;12.75;;;8.32;;
50350;SDS011;36250;48.740;22.174;2024-02-26T04:08:12;13.70;;;8.70;;
50350;SDS011;36250;48.740;22.174;2024-02-26T04:10:37;14.13;;;8.90;;
50350;SDS011;36250;48.740;22.174;2024-02-26T04:13:04;13.77;;;8.85;;
50350;SDS011;36250;48.740;22.174;2024-02-26T04:15:29;14.90;;;8.60;;
50350;SDS011;36250;48.740;22.174;2024-02-26T04:17:55;14.57;;;8.43;;
50350;SDS011;36250;48.740;22.174;2024-02-26T04:20:20;18.23;;;9.57;;
50350;SDS011;36250;48.740;22.174;2024-02-26T04:22:46;16.67;;;8.88;;
50350;SDS011;36250;48.740;22.174;2024-02-26T04:31:55;12.52;;;8.98;;
50350;SDS011;36250;48.740;22.174;2024-02-26T04:34:20;12.10;;;9.10;;
50350;SDS011;36250;48.740;22.174;2024-02-26T04:36:45;14.02;;;7.85;;
50350;SDS011;36250;48.740;22.174;2024-02-26T04:39:12;12.35;;;8.88;;
50350;SDS011;36250;48.740;22.174;2024-02-26T04:41:38;11.43;;;8.80;;
50350;SDS011;36250;48.740;22.174;2024-02-26T04:44:03;12.13;;;8.05;;
50350;SDS011;36250;48.740;22.174;2024-02-26T04:46:29;12.38;;;8.20;;
50350;SDS011;36250;48.740;22.174;2024-02-26T04:48:54;10.88;;;8.48;;
50350;SDS011;36250;48.740;22.174;2024-02-26T04:51:19;12.75;;;8.10;;
50350;SDS011;36250;48.740;22.174;2024-02-26T04:53:45;13.77;;;8.85;;
50350;SDS011;36250;48.740;22.174;2024-02-26T04:56:10;17.67;;;8.77;;
50350;SDS011;36250;48.740;22.174;2024-02-26T04:58:35;10.95;;;8.65;;
50350;SDS011;36250;48.740;22.174;2024-02-26T05:01:01;11.85;;;9.07;;
50350;SDS011;36250;48.740;22.174;2024-02-26T05:03:26;12.65;;;9.13;;
50350;SDS011;36250;48.740;22.174;2024-02-26T05:05:52;11.30;;;8.43;;
50350;SDS011;36250;48.740;22.174;2024-02-26T05:08:17;14.68;;;8.75;;
50350;SDS011;36250;48.740;22.174;2024-02-26T05:10:44;15.95;;;8.88;;
50350;SDS011;36250;48.740;22.174;2024-02-26T05:13:10;15.55;;;8.75;;
50350;SDS011;36250;48.740;22.174;2024-02-26T05:15:35;12.50;;;8.48;;
50350;SDS011;36250;48.740;22.174;2024-02-26T05:18:02;14.57;;;8.65;;
50350;SDS011;36250;48.740;22.174;2024-02-26T05:20:28;15.07;;;8.85;;
50350;SDS011;36250;48.740;22.174;2024-02-26T05:22:53;13.60;;;8.60;;
50350;SDS011;36250;48.740;22.174;2024-02-26T05:25:19;11.75;;;7.82;;
50350;SDS011;36250;48.740;22.174;2024-02-26T05:27:45;13.27;;;8.65;;
50350;SDS011;36250;48.740;22.174;2024-02-26T05:30:10;12.13;;;8.30;;
50350;SDS011;36250;48.740;22.174;2024-02-26T05:32:36;13.98;;;8.77;;
50350;SDS011;36250;48.740;22.174;2024-02-26T05:35:02;13.63;;;8.65;;
50350;SDS011;36250;48.740;22.174;2024-02-26T05:37:30;13.10;;;9.85;;
50350;SDS011;36250;48.740;22.174;2024-02-26T05:39:55;9.93;;;7.95;;
50350;SDS011;36250;48.740;22.174;2024-02-26T05:42:21;14.00;;;8.25;;
50350;SDS011;36250;48.740;22.174;2024-02-26T05:44:46;9.80;;;7.00;;
50350;SDS011;36250;48.740;22.174;2024-02-26T05:47:12;15.18;;;7.10;;
50350;SDS011;36250;48.740;22.174;2024-02-26T05:49:38;9.80;;;7.03;;
50350;SDS011;36250;48.740;22.174;2024-02-26T05:52:04;12.00;;;6.97;;
50350;SDS011;36250;48.740;22.174;2024-02-26T05:54:29;9.13;;;7.13;;
50350;SDS011;36250;48.740;22.174;2024-02-26T05:56:55;8.57;;;6.40;;
50350;SDS011;36250;48.740;22.174;2024-02-26T05:59:20;11.52;;;7.40;;
50350;SDS011;36250;48.740;22.174;2024-02-26T06:01:45;10.75;;;6.10;;
50350;SDS011;36250;48.740;22.174;2024-02-26T06:04:11;13.27;;;6.18;;
50350;SDS011;36250;48.740;22.174;2024-02-26T06:06:37;10.48;;;6.60;;
50350;SDS011;36250;48.740;22.174;2024-02-26T06:09:02;11.65;;;6.35;;
50350;SDS011;36250;48.740;22.174;2024-02-26T06:11:30;7.65;;;6.00;;
50350;SDS011;36250;48.740;22.174;2024-02-26T06:13:55;8.30;;;6.82;;
50350;SDS011;36250;48.740;22.174;2024-02-26T06:16:21;5.95;;;4.93;;
50350;SDS011;36250;48.740;22.174;2024-02-26T06:18:46;12.60;;;7.03;;
50350;SDS011;36250;48.740;22.174;2024-02-26T06:21:11;8.45;;;5.35;;
50350;SDS011;36250;48.740;22.174;2024-02-26T06:23:38;7.88;;;5.47;;
50350;SDS011;36250;48.740;22.174;2024-02-26T06:26:04;8.85;;;5.40;;
50350;SDS011;36250;48.740;22.174;2024-02-26T06:28:29;7.38;;;5.30;;
50350;SDS011;36250;48.740;22.174;2024-02-26T06:30:57;8.23;;;5.18;;
50350;SDS011;36250;48.740;22.174;2024-02-26T06:33:22;7.93;;;5.45;;
50350;SDS011;36250;48.740;22.174;2024-02-26T06:35:47;5.82;;;4.93;;
50350;SDS011;36250;48.740;22.174;2024-02-26T06:38:13;9.18;;;5.18;;
50350;SDS011;36250;48.740;22.174;2024-02-26T06:40:38;8.68;;;4.55;;
50350;SDS011;36250;48.740;22.174;2024-02-26T06:43:04;5.57;;;4.65;;
50350;SDS011;36250;48.740;22.174;2024-02-26T06:45:29;6.38;;;4.80;;
50350;SDS011;36250;48.740;22.174;2024-02-26T06:47:55;9.13;;;5.18;;
50350;SDS011;36250;48.740;22.174;2024-02-26T06:50:21;9.50;;;5.00;;
50350;SDS011;36250;48.740;22.174;2024-02-26T06:52:46;5.10;;;4.60;;
50350;SDS011;36250;48.740;22.174;2024-02-26T06:55:12;9.88;;;5.38;;
50350;SDS011;36250;48.740;22.174;2024-02-26T06:57:38;8.48;;;4.80;;
50350;SDS011;36250;48.740;22.174;2024-02-26T07:00:03;7.25;;;4.53;;
50350;SDS011;36250;48.740;22.174;2024-02-26T07:02:29;7.38;;;4.43;;
50350;SDS011;36250;48.740;22.174;2024-02-26T07:04:55;6.65;;;4.72;;
50350;SDS011;36250;48.740;22.174;2024-02-26T07:07:23;5.18;;;4.47;;
50350;SDS011;36250;48.740;22.174;2024-02-26T07:09:48;8.15;;;4.68;;
50350;SDS011;36250;48.740;22.174;2024-02-26T07:12:14;7.50;;;5.03;;
50350;SDS011;36250;48.740;22.174;2024-02-26T07:14:40;5.47;;;4.25;;
50350;SDS011;36250;48.740;22.174;2024-02-26T07:17:06;7.50;;;4.70;;
50350;SDS011;36250;48.740;22.174;2024-02-26T07:19:31;5.10;;;4.05;;
50350;SDS011;36250;48.740;22.174;2024-02-26T07:21:57;6.18;;;4.80;;
50350;SDS011;36250;48.740;22.174;2024-02-26T07:24:22;5.72;;;5.05;;
50350;SDS011;36250;48.740;22.174;2024-02-26T07:26:48;5.13;;;4.20;;
50350;SDS011;36250;48.740;22.174;2024-02-26T07:29:13;5.88;;;4.90;;
50350;SDS011;36250;48.740;22.174;2024-02-26T07:31:38;6.88;;;4.70;;
50350;SDS011;36250;48.740;22.174;2024-02-26T07:34:04;5.25;;;4.70;;
50350;SDS011;36250;48.740;22.174;2024-02-26T07:36:29;9.23;;;5.15;;
50350;SDS011;36250;48.740;22.174;2024-02-26T07:38:55;7.32;;;5.38;;
50350;SDS011;36250;48.740;22.174;2024-02-26T07:41:20;7.90;;;4.68;;
50350;SDS011;36250;48.740;22.174;2024-02-26T07:43:46;9.82;;;4.68;;
50350;SDS011;36250;48.740;22.174;2024-02-26T07:46:11;8.23;;;4.93;;
50350;SDS011;36250;48.740;22.174;2024-02-26T07:48:37;8.23;;;5.15;;
50350;SDS011;36250;48.740;22.174;2024-02-26T07:51:03;6.28;;;4.70;;
50350;SDS011;36250;48.740;22.174;2024-02-26T07:53:29;8.93;;;5.00;;
50350;SDS011;36250;48.740;22.174;2024-02-26T07:55:55;6.90;;;5.03;;
50350;SDS011;36250;48.740;22.174;2024-02-26T07:58:21;10.23;;;4.28;;
50350;SDS011;36250;48.740;22.174;2024-02-26T08:00:48;6.72;;;4.63;;
50350;SDS011;36250;48.740;22.174;2024-02-26T08:03:14;8.80;;;5.15;;
50350;SDS011;36250;48.740;22.174;2024-02-26T08:05:41;5.80;;;4.55;;
50350;SDS011;36250;48.740;22.174;2024-02-26T08:08:08;9.45;;;4.88;;
50350;SDS011;36250;48.740;22.174;2024-02-26T08:10:33;9.55;;;5.03;;
50350;SDS011;36250;48.740;22.174;2024-02-26T08:12:59;7.90;;;5.18;;
50350;SDS011;36250;48.740;22.174;2024-02-26T08:15:33;9.70;;;4.82;;
50350;SDS011;36250;48.740;22.174;2024-02-26T08:18:00;8.13;;;5.22;;
50350;SDS011;36250;48.740;22.174;2024-02-26T08:20:28;7.57;;;5.22;;
50350;SDS011;36250;48.740;22.174;2024-02-26T08:22:53;7.32;;;5.47;;
50350;SDS011;36250;48.740;22.174;2024-02-26T08:25:19;6.45;;;5.82;;
50350;SDS011;36250;48.740;22.174;2024-02-26T08:27:44;7.60;;;5.25;;
50350;SDS011;36250;48.740;22.174;2024-02-26T08:30:10;8.30;;;5.68;;
50350;SDS011;36250;48.740;22.174;2024-02-26T08:32:38;6.97;;;5.10;;
50350;SDS011;36250;48.740;22.174;2024-02-26T08:35:03;9.55;;;5.82;;
50350;SDS011;36250;48.740;22.174;2024-02-26T08:37:29;10.35;;;5.35;;
50350;SDS011;36250;48.740;22.174;2024-02-26T08:39:55;8.52;;;5.53;;
50350;SDS011;36250;48.740;22.174;2024-02-26T08:42:20;9.50;;;5.13;;
50350;SDS011;36250;48.740;22.174;2024-02-26T08:44:46;6.43;;;5.10;;
50350;SDS011;36250;48.740;22.174;2024-02-26T08:47:11;7.13;;;5.25;;
50350;SDS011;36250;48.740;22.174;2024-02-26T08:49:37;14.77;;;6.82;;
50350;SDS011;36250;48.740;22.174;2024-02-26T08:52:07;8.50;;;5.97;;
50350;SDS011;36250;48.740;22.174;2024-02-26T08:54:32;7.57;;;5.72;;
50350;SDS011;36250;48.740;22.174;2024-02-26T08:56:58;6.90;;;4.75;;
50350;SDS011;36250;48.740;22.174;2024-02-26T08:59:23;10.15;;;6.32;;
50350;SDS011;36250;48.740;22.174;2024-02-26T09:01:49;8.32;;;6.03;;
50350;SDS011;36250;48.740;22.174;2024-02-26T09:04:14;7.93;;;5.72;;
50350;SDS011;36250;48.740;22.174;2024-02-26T09:06:39;8.23;;;5.28;;
50350;SDS011;36250;48.740;22.174;2024-02-26T09:09:05;8.82;;;5.38;;
50350;SDS011;36250;48.740;22.174;2024-02-26T09:11:30;7.30;;;5.45;;
50350;SDS011;36250;48.740;22.174;2024-02-26T09:13:56;6.75;;;4.65;;
50350;SDS011;36250;48.740;22.174;2024-02-26T09:16:22;12.50;;;4.80;;
50350;SDS011;36250;48.740;22.174;2024-02-26T09:18:47;7.93;;;5.15;;
50350;SDS011;36250;48.740;22.174;2024-02-26T09:21:12;7.05;;;5.35;;
50350;SDS011;36250;48.740;22.174;2024-02-26T09:23:38;6.85;;;5.43;;
50350;SDS011;36250;48.740;22.174;2024-02-26T09:26:05;11.38;;;5.22;;
50350;SDS011;36250;48.740;22.174;2024-02-26T09:28:31;8.93;;;5.20;;
50350;SDS011;36250;48.740;22.174;2024-02-26T09:31:02;8.77;;;5.18;;
50350;SDS011;36250;48.740;22.174;2024-02-26T09:33:28;10.30;;;5.50;;
50350;SDS011;36250;48.740;22.174;2024-02-26T09:35:54;9.00;;;6.15;;
50350;SDS011;36250;48.740;22.174;2024-02-26T09:38:19;8.13;;;5.32;;
50350;SDS011;36250;48.740;22.174;2024-02-26T09:40:45;10.68;;;7.05;;
50350;SDS011;36250;48.740;22.174;2024-02-26T09:43:10;16.08;;;11.77;;
50350;SDS011;36250;48.740;22.174;2024-02-26T09:45:40;16.17;;;9.30;;
50350;SDS011;36250;48.740;22.174;2024-02-26T09:48:06;10.98;;;7.00;;
50350;SDS011;36250;48.740;22.174;2024-02-26T09:50:35;15.43;;;10.50;;
50350;SDS011;36250;48.740;22.174;2024-02-26T09:53:01;13.38;;;8.15;;
50350;SDS011;36250;48.740;22.174;2024-02-26T09:55:27;9.18;;;7.35;;
50350;SDS011;36250;48.740;22.174;2024-02-26T09:57:53;8.55;;;6.38;;
50350;SDS011;36250;48.740;22.174;2024-02-26T10:00:19;12.73;;;9.05;;
50350;SDS011;36250;48.740;22.174;2024-02-26T10:02:46;10.13;;;7.05;;
50350;SDS011;36250;48.740;22.174;2024-02-26T10:05:18;10.02;;;7.05;;
50350;SDS011;36250;48.740;22.174;2024-02-26T10:07:44;8.38;;;6.10;;
50350;SDS011;36250;48.740;22.174;2024-02-26T10:10:11;9.55;;;7.25;;
50350;SDS011;36250;48.740;22.174;2024-02-26T10:12:36;13.43;;;6.15;;
50350;SDS011;36250;48.740;22.174;2024-02-26T10:15:01;9.25;;;5.75;;
50350;SDS011;36250;48.740;22.174;2024-02-26T10:17:27;5.97;;;5.07;;
50350;SDS011;36250;48.740;22.174;2024-02-26T10:19:53;8.27;;;5.00;;
50350;SDS011;36250;48.740;22.174;2024-02-26T10:22:21;7.45;;;4.80;;
50350;SDS011;36250;48.740;22.174;2024-02-26T10:24:47;8.82;;;4.47;;
50350;SDS011;36250;48.740;22.174;2024-02-26T10:27:12;6.45;;;5.20;;
50350;SDS011;36250;48.740;22.174;2024-02-26T10:29:38;10.13;;;4.35;;
50350;SDS011;36250;48.740;22.174;2024-02-26T10:32:03;6.25;;;3.80;;
50350;SDS011;36250;48.740;22.174;2024-02-26T10:34:29;9.65;;;3.85;;
50350;SDS011;36250;48.740;22.174;2024-02-26T10:36:55;8.95;;;4.35;;
50350;SDS011;36250;48.740;22.174;2024-02-26T10:39:21;9.23;;;7.40;;
50350;SDS011;36250;48.740;22.174;2024-02-26T10:41:46;13.90;;;5.40;;
50350;SDS011;36250;48.740;22.174;2024-02-26T10:44:12;7.00;;;5.57;;
50350;SDS011;36250;48.740;22.174;2024-02-26T10:46:41;33.63;;;19.08;;
50350;SDS011;36250;48.740;22.174;2024-02-26T10:49:08;9.25;;;6.47;;
50350;SDS011;36250;48.740;22.174;2024-02-26T10:51:38;13.15;;;9.15;;
50350;SDS011;36250;48.740;22.174;2024-02-26T10:54:08;13.32;;;8.73;;
50350;SDS011;36250;48.740;22.174;2024-02-26T10:56:36;10.57;;;7.50;;
50350;SDS011;36250;48.740;22.174;2024-02-26T10:59:06;12.52;;;9.43;;
50350;SDS011;36250;48.740;22.174;2024-02-26T11:01:32;12.93;;;8.23;;
50350;SDS011;36250;48.740;22.174;2024-02-26T11:04:02;15.50;;;9.98;;
50350;SDS011;36250;48.740;22.174;2024-02-26T11:06:28;13.35;;;7.97;;
50350;SDS011;36250;48.740;22.174;2024-02-26T11:08:53;11.93;;;8.57;;
50350;SDS011;36250;48.740;22.174;2024-02-26T11:11:22;13.52;;;7.97;;
50350;SDS011;36250;48.740;22.174;2024-02-26T11:13:50;10.90;;;4.80;;
50350;SDS011;36250;48.740;22.174;2024-02-26T11:16:17;9.20;;;5.18;;
50350;SDS011;36250;48.740;22.174;2024-02-26T11:18:43;10.95;;;5.90;;
50350;SDS011;36250;48.740;22.174;2024-02-26T11:21:13;7.13;;;5.18;;
50350;SDS011;36250;48.740;22.174;2024-02-26T11:23:40;13.23;;;5.68;;
50350;SDS011;36250;48.740;22.174;2024-02-26T11:26:06;10.68;;;5.60;;
50350;SDS011;36250;48.740;22.174;2024-02-26T11:28:34;8.75;;;4.15;;
50350;SDS011;36250;48.740;22.174;2024-02-26T11:31:00;5.85;;;3.78;;
50350;SDS011;36250;48.740;22.174;2024-02-26T11:33:27;6.97;;;4.10;;
50350;SDS011;36250;48.740;22.174;2024-02-26T11:35:53;8.68;;;4.13;;
50350;SDS011;36250;48.740;22.174;2024-02-26T11:38:20;4.85;;;3.40;;
50350;SDS011;36250;48.740;22.174;2024-02-26T11:40:48;5.78;;;3.78;;
50350;SDS011;36250;48.740;22.174;2024-02-26T11:43:15;7.00;;;3.03;;
50350;SDS011;36250;48.740;22.174;2024-02-26T11:48:14;8.10;;;4.47;;
50350;SDS011;36250;48.740;22.174;2024-02-26T11:50:50;10.55;;;6.47;;
50350;SDS011;36250;48.740;22.174;2024-02-26T11:53:29;18.08;;;10.40;;
50350;SDS011;36250;48.740;22.174;2024-02-26T11:58:44;12.00;;;4.82;;
50350;SDS011;36250;48.740;22.174;2024-02-26T12:01:55;10.80;;;7.15;;
50350;SDS011;36250;48.740;22.174;2024-02-26T12:04:04;15.70;;;7.03;;
50350;SDS011;36250;48.740;22.174;2024-02-26T12:06:31;12.07;;;5.82;;
50350;SDS011;36250;48.740;22.174;2024-02-26T12:09:05;16.52;;;7.55;;
50350;SDS011;36250;48.740;22.174;2024-02-26T12:11:30;9.35;;;5.47;;
50350;SDS011;36250;48.740;22.174;2024-02-26T12:13:55;15.65;;;6.22;;
50350;SDS011;36250;48.740;22.174;2024-02-26T12:16:40;9.63;;;7.32;;
50350;SDS011;36250;48.740;22.174;2024-02-26T12:19:08;5.85;;;4.03;;
50350;SDS011;36250;48.740;22.174;2024-02-26T12:21:35;10.55;;;4.32;;
50350;SDS011;36250;48.740;22.174;2024-02-26T12:26:37;4.93;;;3.95;;
50350;SDS011;36250;48.740;22.174;2024-02-26T12:29:03;13.23;;;5.05;;
50350;SDS011;36250;48.740;22.174;2024-02-26T12:31:28;9.05;;;3.30;;
50350;SDS011;36250;48.740;22.174;2024-02-26T12:33:54;7.85;;;3.75;;
50350;SDS011;36250;48.740;22.174;2024-02-26T12:36:20;8.93;;;3.55;;
50350;SDS011;36250;48.740;22.174;2024-02-26T12:38:48;6.90;;;3.72;;
50350;SDS011;36250;48.740;22.174;2024-02-26T12:41:15;6.55;;;3.20;;
50350;SDS011;36250;48.740;22.174;2024-02-26T12:43:41;5.18;;;3.22;;
50350;SDS011;36250;48.740;22.174;2024-02-26T12:46:06;7.80;;;2.70;;
50350;SDS011;36250;48.740;22.174;2024-02-26T12:48:32;6.82;;;3.20;;
50350;SDS011;36250;48.740;22.174;2024-02-26T12:50:57;5.25;;;2.92;;
50350;SDS011;36250;48.740;22.174;2024-02-26T12:53:22;8.32;;;2.38;;
50350;SDS011;36250;48.740;22.174;2024-02-26T12:55:48;3.88;;;2.65;;
50350;SDS011;36250;48.740;22.174;2024-02-26T12:58:14;4.60;;;2.88;;
50350;SDS011;36250;48.740;22.174;2024-02-26T13:00:40;7.43;;;3.10;;
50350;SDS011;36250;48.740;22.174;2024-02-26T13:03:06;11.57;;;7.03;;
50350;SDS011;36250;48.740;22.174;2024-02-26T13:05:31;7.32;;;3.53;;
50350;SDS011;36250;48.740;22.174;2024-02-26T13:07:58;4.60;;;3.38;;
50350;SDS011;36250;48.740;22.174;2024-02-26T13:10:23;7.20;;;3.95;;
50350;SDS011;36250;48.740;22.174;2024-02-26T13:12:50;6.32;;;3.20;;
50350;SDS011;36250;48.740;22.174;2024-02-26T13:15:16;8.05;;;3.40;;
50350;SDS011;36250;48.740;22.174;2024-02-26T13:17:42;5.53;;;3.47;;
50350;SDS011;36250;48.740;22.174;2024-02-26T13:20:11;5.32;;;3.25;;
50350;SDS011;36250;48.740;22.174;2024-02-26T13:22:37;9.63;;;4.22;;
50350;SDS011;36250;48.740;22.174;2024-02-26T13:25:03;7.30;;;3.78;;
50350;SDS011;36250;48.740;22.174;2024-02-26T13:27:29;5.88;;;3.47;;
50350;SDS011;36250;48.740;22.174;2024-02-26T13:32:33;5.45;;;3.45;;
50350;SDS011;36250;48.740;22.174;2024-02-26T13:37:35;10.13;;;3.95;;
50350;SDS011;36250;48.740;22.174;2024-02-26T13:40:09;8.30;;;4.65;;
50350;SDS011;36250;48.740;22.174;2024-02-26T13:42:35;10.73;;;6.25;;
50350;SDS011;36250;48.740;22.174;2024-02-26T13:45:02;10.45;;;5.20;;
50350;SDS011;36250;48.740;22.174;2024-02-26T13:47:28;11.52;;;4.68;;
50350;SDS011;36250;48.740;22.174;2024-02-26T13:49:53;4.82;;;4.20;;
50350;SDS011;36250;48.740;22.174;2024-02-26T13:52:18;6.28;;;4.05;;
50350;SDS011;36250;48.740;22.174;2024-02-26T13:54:45;5.95;;;3.90;;
50350;SDS011;36250;48.740;22.174;2024-02-26T13:57:11;7.88;;;3.90;;
50350;SDS011;36250;48.740;22.174;2024-02-26T13:59:36;7.28;;;4.00;;
50350;SDS011;36250;48.740;22.174;2024-02-26T14:02:02;9.93;;;4.10;;
50350;SDS011;36250;48.740;22.174;2024-02-26T14:04:27;5.32;;;3.35;;
50350;SDS011;36250;48.740;22.174;2024-02-26T14:06:52;7.90;;;4.40;;
50350;SDS011;36250;48.740;22.174;2024-02-26T14:09:18;9.63;;;3.97;;
50350;SDS011;36250;48.740;22.174;2024-02-26T14:11:45;8.27;;;6.32;;
50350;SDS011;36250;48.740;22.174;2024-02-26T14:14:10;5.40;;;3.90;;
50350;SDS011;36250;48.740;22.174;2024-02-26T14:16:36;7.60;;;4.05;;
50350;SDS011;36250;48.740;22.174;2024-02-26T14:19:01;7.13;;;3.88;;
50350;SDS011;36250;48.740;22.174;2024-02-26T14:21:27;18.98;;;9.40;;
50350;SDS011;36250;48.740;22.174;2024-02-26T14:23:54;13.90;;;8.15;;
50350;SDS011;36250;48.740;22.174;2024-02-26T14:26:20;25.77;;;14.43;;
50350;SDS011;36250;48.740;22.174;2024-02-26T14:28:47;18.77;;;12.35;;
50350;SDS011;36250;48.740;22.174;2024-02-26T14:31:12;14.75;;;9.38;;
50350;SDS011;36250;48.740;22.174;2024-02-26T14:33:38;19.40;;;8.38;;
50350;SDS011;36250;48.740;22.174;2024-02-26T14:36:05;18.58;;;10.60;;